createdAt,value
2018-08-30T00:00:21.797Z,100.00
2018-08-30T00:02:52.326Z,100.00
2018-08-30T00:05:22.401Z,100.00
2018-08-30T00:07:52.104Z,100.00
2018-08-30T00:10:21.847Z,100.00
2018-08-30T00:12:51.524Z,100.00
2018-08-30T00:15:21.340Z,100.00
2018-08-30T00:17:51.113Z,100.00
2018-08-30T00:20:21.320Z,100.00
2018-08-30T00:22:51.582Z,100.00
2018-08-30T00:25:21.239Z,100.00
2018-08-30T00:27:50.883Z,100.00
2018-08-30T00:30:21.381Z,100.00
2018-08-30T00:32:51.192Z,100.00
2018-08-30T00:35:20.824Z,100.00
2018-08-30T00:37:50.729Z,100.00
2018-08-30T00:40:21.103Z,100.00
2018-08-30T00:42:51.293Z,100.00
2018-08-30T00:45:20.987Z,100.00
2018-08-30T00:47:51.421Z,100.00
2018-08-30T00:50:21.632Z,100.00
2018-08-30T00:52:51.442Z,100.00
2018-08-30T00:55:21.149Z,100.00
2018-08-30T00:57:50.919Z,100.00
2018-08-30T01:00:20.698Z,100.00
2018-08-30T01:02:50.636Z,100.00
2018-08-30T01:05:20.969Z,100.00
2018-08-30T01:07:50.806Z,100.00
2018-08-30T01:10:21.245Z,100.00
2018-08-30T01:12:54.436Z,100.00
2018-08-30T01:15:26.536Z,100.00
2018-08-30T01:17:56.925Z,100.00
2018-08-30T01:20:26.552Z,100.00
2018-08-30T01:22:56.381Z,100.00
2018-08-30T01:25:26.670Z,100.00
2018-08-30T01:27:56.786Z,100.00
2018-08-30T01:30:26.438Z,100.00
2018-08-30T01:32:56.085Z,100.00
2018-08-30T01:35:25.750Z,100.00
2018-08-30T01:37:59.285Z,100.00
2018-08-30T01:40:28.883Z,100.00
2018-08-30T01:42:58.644Z,100.00
2018-08-30T01:45:29.182Z,100.00
2018-08-30T01:47:59.024Z,100.00
2018-08-30T01:50:29.283Z,100.00
2018-08-30T01:53:05.848Z,100.00
2018-08-30T01:55:36.384Z,100.00
2018-08-30T01:58:06.401Z,100.00
2018-08-30T02:00:36.205Z,100.00
2018-08-30T02:03:06.465Z,100.00
2018-08-30T02:05:36.079Z,100.00
2018-08-30T02:08:05.981Z,100.00
2018-08-30T02:10:35.831Z,100.00
2018-08-30T02:13:05.537Z,100.00
2018-08-30T02:15:35.308Z,100.00
2018-08-30T02:18:05.140Z,100.00
2018-08-30T02:20:35.764Z,100.00
2018-08-30T02:23:05.790Z,100.00
2018-08-30T02:25:36.088Z,100.00
2018-08-30T02:28:06.079Z,100.00
2018-08-30T02:30:36.122Z,100.00
2018-08-30T02:33:05.768Z,100.00
2018-08-30T02:35:35.625Z,100.00
2018-08-30T02:38:05.363Z,100.00
2018-08-30T02:40:34.969Z,100.00
2018-08-30T02:43:05.367Z,100.00
2018-08-30T02:45:35.764Z,100.00
2018-08-30T02:48:05.700Z,100.00
2018-08-30T02:50:35.392Z,100.00
2018-08-30T02:53:05.190Z,100.00
2018-08-30T02:55:34.784Z,100.00
2018-08-30T02:58:04.663Z,100.00
2018-08-30T03:00:34.387Z,100.00
2018-08-30T03:03:04.738Z,100.00
2018-08-30T03:05:35.009Z,100.00
2018-08-30T03:08:04.777Z,100.00
2018-08-30T03:10:34.433Z,100.00
2018-08-30T03:13:04.210Z,100.00
2018-08-30T03:15:33.915Z,100.00
2018-08-30T03:18:03.823Z,100.00
2018-08-30T03:20:33.455Z,100.00
2018-08-30T03:23:03.092Z,100.00
2018-08-30T03:25:32.742Z,100.00
2018-08-30T03:28:02.318Z,100.00
2018-08-30T03:30:32.091Z,100.00
2018-08-30T03:33:01.780Z,100.00
2018-08-30T03:35:31.524Z,100.00
2018-08-30T03:38:01.283Z,100.00
2018-08-30T03:40:30.921Z,100.00
2018-08-30T03:43:00.578Z,100.00
2018-08-30T03:45:30.855Z,100.00
2018-08-30T03:48:01.168Z,100.00
2018-08-30T03:50:30.935Z,100.00
2018-08-30T03:53:00.493Z,100.00
2018-08-30T03:55:30.235Z,100.00
2018-08-30T03:57:59.968Z,100.00
2018-08-30T04:00:29.692Z,100.00
2018-08-30T04:02:59.956Z,100.00
2018-08-30T04:05:29.597Z,100.00
2018-08-30T04:07:59.316Z,100.00
2018-08-30T04:10:29.575Z,100.00
2018-08-30T04:12:59.221Z,100.00
2018-08-30T04:15:29.031Z,100.00
2018-08-30T04:17:58.825Z,100.00
2018-08-30T04:20:28.779Z,100.00
2018-08-30T04:22:58.666Z,100.00
2018-08-30T04:25:28.326Z,100.00
2018-08-30T04:27:57.961Z,100.00
2018-08-30T04:30:27.664Z,100.00
2018-08-30T04:32:57.375Z,100.00
2018-08-30T04:35:26.984Z,100.00
2018-08-30T04:37:57.469Z,100.00
2018-08-30T04:40:27.223Z,100.00
2018-08-30T04:42:56.930Z,100.00
2018-08-30T04:45:26.665Z,100.00
2018-08-30T04:47:56.308Z,100.00
2018-08-30T04:50:25.994Z,100.00
2018-08-30T04:52:55.491Z,100.00
2018-08-30T04:55:25.151Z,100.00
2018-08-30T04:57:55.501Z,100.00
2018-08-30T05:00:25.068Z,100.00
2018-08-30T05:02:54.959Z,100.00
2018-08-30T05:05:25.272Z,100.00
2018-08-30T05:07:55.303Z,100.00
2018-08-30T05:10:25.068Z,100.00
2018-08-30T05:12:55.505Z,100.00
2018-08-30T05:15:25.149Z,100.00
2018-08-30T05:17:55.080Z,100.00
2018-08-30T05:20:24.757Z,100.00
2018-08-30T05:22:54.608Z,100.00
2018-08-30T05:25:24.227Z,100.00
2018-08-30T05:27:53.914Z,100.00
2018-08-30T05:30:23.657Z,100.00
2018-08-30T05:32:53.463Z,100.00
2018-08-30T05:35:23.549Z,100.00
2018-08-30T05:37:53.732Z,100.00
2018-08-30T05:40:23.364Z,100.00
2018-08-30T05:42:53.094Z,100.00
2018-08-30T05:45:22.885Z,100.00
2018-08-30T05:47:52.553Z,100.00
2018-08-30T05:50:23.019Z,100.00
2018-08-30T05:52:52.741Z,100.00
2018-08-30T05:55:22.377Z,100.00
2018-08-30T05:57:51.961Z,100.00
2018-08-30T06:00:21.633Z,100.00
2018-08-30T06:02:51.627Z,100.00
2018-08-30T06:05:21.367Z,100.00
2018-08-30T06:07:51.017Z,100.00
2018-08-30T06:10:20.663Z,100.00
2018-08-30T06:12:50.405Z,100.00
2018-08-30T06:15:20.176Z,100.00
2018-08-30T06:17:50.140Z,100.00
2018-08-30T06:20:19.919Z,100.00
2018-08-30T06:22:49.495Z,100.00
2018-08-30T06:25:19.423Z,100.00
2018-08-30T06:27:49.205Z,100.00
2018-08-30T06:30:20.281Z,100.00
2018-08-30T06:32:50.023Z,100.00
2018-08-30T06:35:19.588Z,100.00
2018-08-30T06:37:49.872Z,100.00
2018-08-30T06:40:19.856Z,100.00
2018-08-30T06:42:49.600Z,100.00
2018-08-30T06:45:19.376Z,100.00
2018-08-30T06:47:48.971Z,100.00
2018-08-30T06:50:18.721Z,100.00
2018-08-30T06:52:48.375Z,100.00
2018-08-30T06:57:51.020Z,100.00
2018-08-30T07:00:20.906Z,100.00
2018-08-30T07:02:50.550Z,100.00
2018-08-30T07:05:20.505Z,100.00
2018-08-30T07:07:50.801Z,100.00
2018-08-30T07:10:20.477Z,100.00
2018-08-30T07:12:50.074Z,100.00
2018-08-30T07:15:20.013Z,99.60
2018-08-30T07:17:49.753Z,100.00
2018-08-30T07:20:19.443Z,100.00
2018-08-30T07:22:49.109Z,100.00
2018-08-30T07:25:18.894Z,100.00
2018-08-30T07:27:48.559Z,100.00
2018-08-30T07:30:18.458Z,100.00
2018-08-30T07:32:48.168Z,100.00
2018-08-30T07:35:17.941Z,100.00
2018-08-30T07:37:47.616Z,100.00
2018-08-30T07:40:17.322Z,100.00
2018-08-30T07:42:47.012Z,100.00
2018-08-30T07:45:16.764Z,100.00
2018-08-30T07:47:46.471Z,100.00
2018-08-30T07:50:16.152Z,100.00
2018-08-30T07:52:45.863Z,100.00
2018-08-30T07:55:15.480Z,100.00
2018-08-30T07:57:45.262Z,100.00
2018-08-30T08:00:14.963Z,100.00
2018-08-30T08:02:44.697Z,100.00
2018-08-30T08:05:14.442Z,100.00
2018-08-30T08:07:44.126Z,99.72
2018-08-30T08:10:13.790Z,97.18
2018-08-30T08:12:43.711Z,96.25
2018-08-30T08:15:13.254Z,96.13
2018-08-30T08:17:42.986Z,94.61
2018-08-30T08:20:13.063Z,93.29
2018-08-30T08:22:42.715Z,90.99
2018-08-30T08:25:12.808Z,89.84
2018-08-30T08:27:42.398Z,90.70
2018-08-30T08:30:12.368Z,91.62
2018-08-30T08:32:42.054Z,90.83
2018-08-30T08:35:12.126Z,91.43
2018-08-30T08:37:41.948Z,90.21
2018-08-30T08:40:12.005Z,90.73
2018-08-30T08:42:41.992Z,89.80
2018-08-30T08:45:11.790Z,87.98
2018-08-30T08:47:41.685Z,88.07
2018-08-30T08:50:11.601Z,89.15
2018-08-30T08:52:41.374Z,88.79
2018-08-30T08:55:11.358Z,90.94
2018-08-30T08:57:41.042Z,89.97
2018-08-30T09:00:10.687Z,89.86
2018-08-30T09:02:40.240Z,91.02
2018-08-30T09:05:10.472Z,88.36
2018-08-30T09:07:40.283Z,89.59
2018-08-30T09:10:09.920Z,87.96
2018-08-30T09:12:39.672Z,86.87
2018-08-30T09:15:09.458Z,86.56
2018-08-30T09:17:39.040Z,86.59
2018-08-30T09:20:09.910Z,86.77
2018-08-30T09:22:39.633Z,85.22
2018-08-30T09:25:09.383Z,85.48
2018-08-30T09:27:39.012Z,82.97
2018-08-30T09:30:08.702Z,81.52
2018-08-30T09:32:38.403Z,81.72
2018-08-30T09:35:08.288Z,83.26
2018-08-30T09:37:38.001Z,81.04
2018-08-30T09:40:10.816Z,79.64
2018-08-30T09:42:40.463Z,82.39
2018-08-30T09:45:10.182Z,80.07
2018-08-30T09:47:39.930Z,79.77
2018-08-30T09:50:09.606Z,78.72
2018-08-30T09:52:39.325Z,79.10
2018-08-30T09:55:08.987Z,76.86
2018-08-30T09:57:38.683Z,75.72
2018-08-30T10:00:12.875Z,74.46
2018-08-30T10:02:47.573Z,76.64
2018-08-30T10:05:17.636Z,74.21
2018-08-30T10:07:47.290Z,71.87
2018-08-30T10:10:17.052Z,73.84
2018-08-30T10:12:46.776Z,72.99
2018-08-30T10:15:16.530Z,75.36
2018-08-30T10:17:46.366Z,72.50
2018-08-30T10:20:16.085Z,71.07
2018-08-30T10:22:45.722Z,69.93
2018-08-30T10:25:15.384Z,69.70
2018-08-30T10:27:51.304Z,68.80
2018-08-30T10:30:21.251Z,67.35
2018-08-30T10:32:50.863Z,68.18
2018-08-30T10:35:27.254Z,72.72
2018-08-30T10:37:57.139Z,69.49
2018-08-30T10:40:26.994Z,70.32
2018-08-30T10:42:56.824Z,70.48
2018-08-30T10:45:26.452Z,69.60
2018-08-30T10:47:56.196Z,70.67
2018-08-30T10:50:26.677Z,70.28
2018-08-30T10:52:56.343Z,68.24
2018-08-30T10:55:26.341Z,66.85
2018-08-30T10:57:55.934Z,66.23
2018-08-30T11:00:26.173Z,65.41
2018-08-30T11:02:55.944Z,66.95
2018-08-30T11:05:26.083Z,66.46
2018-08-30T11:07:55.689Z,67.04
2018-08-30T11:10:25.658Z,65.96
2018-08-30T11:12:55.331Z,68.26
2018-08-30T11:15:25.144Z,67.68
2018-08-30T11:17:55.277Z,67.67
2018-08-30T11:20:25.013Z,67.01
2018-08-30T11:22:54.768Z,67.19
2018-08-30T11:25:24.656Z,65.08
2018-08-30T11:27:54.358Z,67.11
2018-08-30T11:30:23.952Z,66.04
2018-08-30T11:32:53.661Z,63.81
2018-08-30T11:35:23.216Z,63.89
2018-08-30T11:37:52.950Z,64.63
2018-08-30T11:40:22.812Z,63.25
2018-08-30T11:42:52.560Z,64.78
2018-08-30T11:45:22.377Z,63.10
2018-08-30T11:47:52.017Z,60.85
2018-08-30T11:50:21.727Z,59.06
2018-08-30T11:52:51.342Z,62.90
2018-08-30T11:55:21.053Z,62.36
2018-08-30T11:57:50.725Z,62.82
2018-08-30T12:00:20.439Z,61.87
2018-08-30T12:02:50.228Z,62.18
2018-08-30T12:05:19.987Z,60.91
2018-08-30T12:07:50.220Z,59.95
2018-08-30T12:10:20.095Z,61.68
2018-08-30T12:12:49.724Z,61.20
2018-08-30T12:15:19.521Z,59.82
2018-08-30T12:17:49.227Z,59.97
2018-08-30T12:20:18.913Z,61.95
2018-08-30T12:22:48.530Z,59.39
2018-08-30T12:25:18.181Z,60.18
2018-08-30T12:27:47.947Z,59.91
2018-08-30T12:30:17.774Z,57.35
2018-08-30T12:32:47.460Z,59.42
2018-08-30T12:35:17.111Z,56.82
2018-08-30T12:37:46.835Z,57.11
2018-08-30T12:40:16.648Z,57.58
2018-08-30T12:42:46.394Z,58.42
2018-08-30T12:45:16.011Z,57.81
2018-08-30T12:47:45.768Z,56.45
2018-08-30T12:50:18.005Z,57.79
2018-08-30T12:52:47.766Z,56.67
2018-08-30T12:55:17.539Z,57.23
2018-08-30T12:57:47.152Z,59.28
2018-08-30T13:00:16.845Z,57.97
2018-08-30T13:02:46.596Z,57.67
2018-08-30T13:05:16.935Z,59.34
2018-08-30T13:07:46.589Z,62.10
2018-08-30T13:10:16.189Z,66.38
2018-08-30T13:12:45.919Z,65.92
2018-08-30T13:15:15.847Z,68.90
2018-08-30T13:17:45.225Z,68.72
2018-08-30T13:20:14.932Z,66.56
2018-08-30T13:22:44.724Z,67.40
2018-08-30T13:25:14.361Z,67.13
2018-08-30T13:27:44.091Z,65.47
2018-08-30T13:30:13.959Z,66.28
2018-08-30T13:32:43.742Z,63.50
2018-08-30T13:35:13.386Z,63.14
2018-08-30T13:37:43.060Z,61.05
2018-08-30T13:40:12.625Z,60.81
2018-08-30T13:42:42.194Z,62.01
2018-08-30T13:45:12.127Z,61.78
2018-08-30T13:47:41.614Z,60.17
2018-08-30T13:50:11.342Z,58.79
2018-08-30T13:52:42.159Z,61.31
2018-08-30T13:55:11.985Z,62.42
2018-08-30T13:57:42.058Z,63.53
2018-08-30T14:00:11.982Z,62.34
2018-08-30T14:02:42.139Z,62.21
2018-08-30T14:05:12.101Z,62.96
2018-08-30T14:07:41.902Z,63.86
2018-08-30T14:10:11.680Z,62.94
2018-08-30T14:12:41.628Z,63.52
2018-08-30T14:15:12.395Z,65.19
2018-08-30T14:17:41.832Z,66.34
2018-08-30T14:20:11.657Z,67.50
2018-08-30T14:22:41.779Z,68.53
2018-08-30T14:25:11.482Z,71.01
2018-08-30T14:27:41.415Z,72.61
2018-08-30T14:30:11.156Z,74.13
2018-08-30T14:32:41.361Z,75.03
2018-08-30T14:35:11.085Z,75.15
2018-08-30T14:37:40.957Z,73.49
2018-08-30T14:40:10.727Z,73.91
2018-08-30T14:42:40.288Z,72.92
2018-08-30T14:45:09.993Z,72.78
2018-08-30T14:47:39.766Z,71.72
2018-08-30T14:50:09.458Z,71.12
2018-08-30T14:52:39.230Z,72.63
2018-08-30T14:55:08.929Z,71.16
2018-08-30T14:57:38.675Z,73.54
2018-08-30T15:00:08.464Z,74.02
2018-08-30T15:02:38.147Z,71.67
2018-08-30T15:05:08.204Z,73.66
2018-08-30T15:07:37.835Z,72.22
2018-08-30T15:10:07.897Z,72.72
2018-08-30T15:12:37.613Z,73.85
2018-08-30T15:15:07.547Z,71.53
2018-08-30T15:17:37.134Z,72.71
2018-08-30T15:20:07.133Z,71.18
2018-08-30T15:22:36.722Z,72.32
2018-08-30T15:25:06.454Z,73.59
2018-08-30T15:27:36.443Z,74.40
2018-08-30T15:30:07.066Z,75.37
2018-08-30T15:32:36.849Z,73.67
2018-08-30T15:35:07.060Z,75.12
2018-08-30T15:37:36.719Z,74.67
2018-08-30T15:40:06.549Z,74.84
2018-08-30T15:42:36.252Z,76.54
2018-08-30T15:45:06.244Z,77.14
2018-08-30T15:47:35.930Z,79.65
2018-08-30T15:50:06.131Z,80.14
2018-08-30T15:52:35.827Z,82.10
2018-08-30T15:55:05.544Z,83.08
2018-08-30T15:57:35.120Z,87.32
2018-08-30T16:00:11.430Z,90.16
2018-08-30T16:02:41.237Z,90.97
2018-08-30T16:05:10.972Z,91.47
2018-08-30T16:07:40.506Z,91.87
2018-08-30T16:10:10.232Z,92.52
2018-08-30T16:12:39.832Z,91.37
2018-08-30T16:15:09.652Z,91.63
2018-08-30T16:17:39.364Z,92.86
2018-08-30T16:20:09.540Z,92.29
2018-08-30T16:23:43.543Z,94.07
2018-08-30T16:26:13.239Z,94.13
2018-08-30T16:28:43.205Z,93.35
2018-08-30T16:31:13.017Z,94.33
2018-08-30T16:33:42.764Z,95.84
2018-08-30T16:36:12.732Z,94.87
2018-08-30T16:38:42.436Z,95.65
2018-08-30T16:41:12.139Z,97.19
2018-08-30T16:43:41.816Z,97.77
2018-08-30T16:46:12.147Z,97.40
2018-08-30T16:48:41.900Z,98.26
2018-08-30T16:51:11.702Z,95.91
2018-08-30T16:53:41.326Z,95.39
2018-08-30T16:56:11.017Z,94.71
2018-08-30T16:58:40.579Z,92.21
2018-08-30T17:01:10.244Z,93.22
2018-08-30T17:03:39.888Z,93.89
2018-08-30T17:06:10.133Z,91.22
2018-08-30T17:08:39.939Z,91.65
2018-08-30T17:11:09.551Z,89.55
2018-08-30T17:13:39.277Z,89.59
2018-08-30T17:16:08.958Z,89.30
2018-08-30T17:18:39.253Z,89.29
2018-08-30T17:21:08.953Z,87.68
2018-08-30T17:23:38.693Z,87.56
2018-08-30T17:26:08.442Z,86.33
2018-08-30T17:28:38.220Z,84.49
2018-08-30T17:31:07.933Z,84.90
2018-08-30T17:33:37.492Z,83.77
2018-08-30T17:36:07.550Z,85.00
2018-08-30T17:38:37.130Z,85.38
2018-08-30T17:41:06.928Z,85.13
2018-08-30T17:43:36.819Z,84.47
2018-08-30T17:46:06.659Z,83.40
2018-08-30T17:48:37.181Z,81.67
2018-08-30T17:51:07.018Z,80.39
2018-08-30T17:53:36.698Z,79.33
2018-08-30T17:56:06.717Z,79.18
2018-08-30T17:58:36.283Z,79.94
2018-08-30T18:01:06.844Z,79.48
2018-08-30T18:03:36.527Z,80.13
2018-08-30T18:06:06.351Z,79.77
2018-08-30T18:08:36.109Z,81.13
2018-08-30T18:11:06.246Z,81.58
2018-08-30T18:13:35.948Z,81.06
2018-08-30T18:16:05.775Z,81.25
2018-08-30T18:18:35.544Z,81.86
2018-08-30T18:21:05.762Z,81.32
2018-08-30T18:23:35.370Z,82.31
2018-08-30T18:26:06.281Z,82.47
2018-08-30T18:28:36.109Z,82.31
2018-08-30T18:31:05.945Z,82.49
2018-08-30T18:33:35.617Z,82.88
2018-08-30T18:36:05.556Z,82.39
2018-08-30T18:38:35.694Z,83.06
2018-08-30T18:41:05.795Z,82.49
2018-08-30T18:43:35.611Z,83.78
2018-08-30T18:46:06.257Z,83.89
2018-08-30T18:48:35.874Z,83.23
2018-08-30T18:51:06.147Z,83.44
2018-08-30T18:53:35.822Z,83.95
2018-08-30T18:56:06.378Z,83.60
2018-08-30T18:58:36.072Z,83.99
2018-08-30T19:01:06.258Z,84.07
2018-08-30T19:03:36.111Z,85.04
2018-08-30T19:06:06.236Z,84.91
2018-08-30T19:08:35.995Z,84.70
2018-08-30T19:11:07.007Z,84.96
2018-08-30T19:13:36.997Z,85.99
2018-08-30T19:16:12.431Z,85.61
2018-08-30T19:18:47.294Z,86.17
2018-08-30T19:21:17.221Z,85.74
2018-08-30T19:23:46.924Z,86.75
2018-08-30T19:26:16.911Z,86.93
2018-08-30T19:28:46.895Z,86.16
2018-08-30T19:31:16.847Z,86.90
2018-08-30T19:33:46.633Z,86.72
2018-08-30T19:36:21.456Z,85.15
2018-08-30T19:38:51.785Z,84.90
2018-08-30T19:41:23.050Z,84.92
2018-08-30T19:43:53.870Z,85.23
2018-08-30T19:46:24.593Z,84.71
2018-08-30T19:48:55.023Z,84.15
2018-08-30T19:51:25.307Z,83.66
2018-08-30T19:53:55.803Z,83.77
2018-08-30T19:56:26.270Z,84.42
2018-08-30T19:58:56.646Z,83.53
2018-08-30T20:01:26.704Z,84.51
2018-08-30T20:03:57.521Z,84.24
2018-08-30T20:06:34.088Z,84.38
2018-08-30T20:09:04.767Z,84.48
2018-08-30T20:11:35.440Z,83.84
2018-08-30T20:14:05.943Z,84.77
2018-08-30T20:16:36.301Z,84.05
2018-08-30T20:19:06.536Z,84.54
2018-08-30T20:21:36.454Z,84.28
2018-08-30T20:24:06.536Z,85.22
2018-08-30T20:26:36.731Z,85.22
2018-08-30T20:29:06.945Z,85.39
2018-08-30T20:31:36.809Z,84.75
2018-08-30T20:34:06.562Z,85.66
2018-08-30T20:36:36.606Z,85.36
2018-08-30T20:39:07.437Z,86.15
2018-08-30T20:41:37.893Z,84.76
2018-08-30T20:44:07.733Z,86.54
2018-08-30T20:46:37.701Z,86.14
2018-08-30T20:49:07.613Z,86.67
2018-08-30T20:51:37.472Z,87.23
2018-08-30T20:54:07.393Z,86.38
2018-08-30T20:56:37.918Z,87.01
2018-08-30T20:59:08.220Z,86.78
2018-08-30T21:01:38.060Z,86.78
2018-08-30T21:04:07.748Z,87.45
2018-08-30T21:06:37.424Z,87.65
2018-08-30T21:09:09.954Z,88.32
2018-08-30T21:11:40.247Z,87.55
2018-08-30T21:14:10.117Z,88.40
2018-08-30T21:16:39.741Z,88.74
2018-08-30T21:19:09.552Z,88.90
2018-08-30T21:21:39.294Z,89.52
2018-08-30T21:24:09.188Z,89.69
2018-08-30T21:26:38.940Z,90.22
2018-08-30T21:29:08.645Z,90.02
2018-08-30T21:31:38.295Z,90.73
2018-08-30T21:34:08.972Z,91.05
2018-08-30T21:36:38.662Z,90.90
2018-08-30T21:39:09.912Z,91.79
2018-08-30T21:41:39.769Z,91.85
2018-08-30T21:44:09.487Z,92.18
2018-08-30T21:46:39.313Z,92.41
2018-08-30T21:49:09.120Z,91.58
2018-08-30T21:51:38.951Z,92.83
2018-08-30T21:54:08.847Z,93.30
2018-08-30T21:56:38.564Z,91.38
2018-08-30T21:59:08.478Z,92.73
2018-08-30T22:01:39.250Z,93.07
2018-08-30T22:04:14.042Z,92.20
2018-08-30T22:06:48.076Z,93.30
2018-08-30T22:09:17.755Z,93.11
2018-08-30T22:11:53.704Z,92.70
2018-08-30T22:14:26.708Z,93.99
2018-08-30T22:17:00.928Z,93.60
2018-08-30T22:22:08.162Z,93.59
2018-08-30T22:24:38.092Z,94.63
2018-08-30T22:27:07.344Z,94.12
2018-08-30T22:29:37.024Z,94.49
2018-08-30T22:32:06.870Z,95.18
2018-08-30T22:34:36.677Z,94.98
2018-08-30T22:37:06.430Z,95.24
2018-08-30T22:39:36.117Z,95.46
2018-08-30T22:42:05.829Z,95.25
2018-08-30T22:44:35.428Z,95.24
2018-08-30T22:47:05.347Z,95.09
2018-08-30T22:49:35.015Z,95.12
2018-08-30T22:52:04.690Z,93.86
2018-08-30T22:54:34.343Z,93.78
2018-08-30T22:57:03.921Z,94.33
2018-08-30T22:59:33.563Z,95.38
2018-08-30T23:02:03.442Z,94.90
2018-08-30T23:04:33.052Z,95.54
2018-08-30T23:07:02.774Z,94.88
2018-08-30T23:09:32.526Z,95.78
2018-08-30T23:12:02.157Z,95.90
2018-08-30T23:14:31.803Z,95.95
2018-08-30T23:17:01.468Z,96.41
2018-08-30T23:19:31.079Z,96.04
2018-08-30T23:22:00.704Z,96.70
2018-08-30T23:24:30.343Z,96.17
2018-08-30T23:26:59.909Z,94.73
2018-08-30T23:29:29.771Z,93.91
2018-08-30T23:31:59.380Z,93.24
2018-08-30T23:34:29.087Z,93.09
2018-08-30T23:36:58.847Z,93.99
2018-08-30T23:39:29.208Z,94.53
2018-08-30T23:41:58.836Z,94.33
2018-08-30T23:44:28.483Z,94.97
2018-08-30T23:46:58.103Z,95.38
2018-08-30T23:49:27.705Z,95.31
2018-08-30T23:51:57.285Z,94.84
2018-08-30T23:54:26.954Z,95.43
2018-08-30T23:56:56.714Z,94.71
2018-08-30T23:59:43.010Z,93.97
